createdAt,value
2023-05-01T00:02:02.535Z,18.40
2023-05-01T00:04:35.193Z,18.50
2023-05-01T00:07:08.050Z,18.40
2023-05-01T00:09:40.851Z,18.40
2023-05-01T00:12:13.364Z,18.40
2023-05-01T00:14:45.855Z,18.40
2023-05-01T00:17:18.378Z,18.40
2023-05-01T00:19:54.974Z,18.40
2023-05-01T00:22:27.924Z,18.40
2023-05-01T00:25:00.405Z,18.40
2023-05-01T00:27:33.268Z,18.40
2023-05-01T00:30:07.705Z,18.40
2023-05-01T00:32:40.332Z,18.40
2023-05-01T00:35:13.644Z,18.40
2023-05-01T00:37:46.205Z,18.40
2023-05-01T00:40:19.001Z,18.40
2023-05-01T00:42:51.585Z,18.40
2023-05-01T00:45:24.248Z,18.40
2023-05-01T00:47:56.766Z,18.40
2023-05-01T00:50:30.123Z,18.30
2023-05-01T00:53:04.076Z,18.40
2023-05-01T00:55:37.609Z,18.40
2023-05-01T00:58:12.223Z,18.40
2023-05-01T01:00:45.248Z,18.30
2023-05-01T01:03:18.050Z,18.40
2023-05-01T01:06:16.371Z,18.30
2023-05-01T01:09:24.034Z,18.40
2023-05-01T01:12:11.711Z,18.40
2023-05-01T01:14:50.257Z,18.30
2023-05-01T01:17:42.932Z,18.30
2023-05-01T01:20:32.616Z,18.30
2023-05-01T01:23:42.328Z,18.30
2023-05-01T01:26:42.570Z,18.40
2023-05-01T01:29:42.169Z,18.40
2023-05-01T01:32:20.184Z,18.40
2023-05-01T01:35:00.434Z,18.40
2023-05-01T01:37:48.737Z,18.40
2023-05-01T01:40:26.398Z,18.40
2023-05-01T01:43:10.927Z,18.40
2023-05-01T01:45:59.703Z,18.40
2023-05-01T01:48:36.460Z,18.40
2023-05-01T01:51:13.613Z,18.40
2023-05-01T01:53:52.116Z,18.40
2023-05-01T01:56:28.504Z,18.40
2023-05-01T01:59:02.744Z,18.40
2023-05-01T02:01:37.602Z,18.50
2023-05-01T02:04:11.846Z,18.40
2023-05-01T02:06:46.165Z,18.40
2023-05-01T02:09:22.993Z,18.40
2023-05-01T02:11:58.889Z,18.50
2023-05-01T02:14:33.675Z,18.50
2023-05-01T02:17:06.819Z,18.40
2023-05-01T02:19:42.568Z,18.50
2023-05-01T02:22:17.852Z,18.50
2023-05-01T02:24:50.514Z,18.40
2023-05-01T02:27:32.513Z,18.40
2023-05-01T02:30:05.914Z,18.40
2023-05-01T02:32:39.241Z,18.40
2023-05-01T02:35:11.862Z,18.40
2023-05-01T02:37:46.024Z,18.40
2023-05-01T02:40:19.235Z,18.50
2023-05-01T02:42:53.372Z,18.40
2023-05-01T02:45:29.828Z,18.50
2023-05-01T02:48:04.609Z,18.40
2023-05-01T02:50:42.980Z,18.50
2023-05-01T02:53:16.696Z,18.50
2023-05-01T02:55:55.884Z,18.50
2023-05-01T02:58:34.853Z,18.50
2023-05-01T03:01:07.490Z,18.50
2023-05-01T03:03:40.161Z,18.60
2023-05-01T03:06:14.606Z,18.60
2023-05-01T03:08:48.046Z,18.60
2023-05-01T03:11:21.512Z,18.60
2023-05-01T03:13:53.959Z,18.60
2023-05-01T03:16:26.510Z,18.60
2023-05-01T03:18:59.116Z,18.60
2023-05-01T03:21:32.443Z,18.60
2023-05-01T03:24:05.021Z,18.60
2023-05-01T03:26:37.916Z,18.60
2023-05-01T03:29:10.443Z,18.60
2023-05-01T03:31:43.138Z,18.60
2023-05-01T03:34:16.578Z,18.60
2023-05-01T03:36:49.277Z,18.60
2023-05-01T03:39:21.923Z,18.60
2023-05-01T03:42:12.827Z,18.60
2023-05-01T03:44:48.121Z,18.60
2023-05-01T03:47:21.526Z,18.60
2023-05-01T03:49:54.238Z,18.60
2023-05-01T03:52:26.990Z,18.60
2023-05-01T03:55:01.797Z,18.60
2023-05-01T03:57:47.871Z,18.60
2023-05-01T04:00:21.518Z,18.70
2023-05-01T04:02:54.675Z,18.60
2023-05-01T04:05:30.102Z,18.60
2023-05-01T04:08:07.532Z,18.60
2023-05-01T04:10:40.072Z,18.60
2023-05-01T04:13:13.285Z,18.70
2023-05-01T04:15:46.920Z,18.70
2023-05-01T04:18:19.556Z,18.70
2023-05-01T04:20:52.594Z,18.70
2023-05-01T04:23:25.806Z,18.70
2023-05-01T04:26:01.801Z,18.70
2023-05-01T04:28:34.475Z,18.70
2023-05-01T04:31:07.503Z,18.70
2023-05-01T04:33:40.334Z,18.70
2023-05-01T04:36:13.132Z,18.70
2023-05-01T04:38:46.198Z,18.70
2023-05-01T04:41:19.714Z,18.70
2023-05-01T04:43:53.498Z,18.70
2023-05-01T04:46:26.261Z,18.70
2023-05-01T04:48:58.983Z,18.70
2023-05-01T04:51:31.664Z,18.60
2023-05-01T04:54:05.123Z,18.60
2023-05-01T04:56:40.319Z,18.60
2023-05-01T04:59:13.008Z,18.60
2023-05-01T05:01:45.752Z,18.60
2023-05-01T05:04:18.521Z,18.60
2023-05-01T05:06:51.578Z,18.60
2023-05-01T05:09:38.989Z,18.60
2023-05-01T05:12:11.647Z,18.60
2023-05-01T05:14:44.513Z,18.60
2023-05-01T05:17:18.404Z,18.60
2023-05-01T05:19:51.046Z,18.60
2023-05-01T05:22:24.472Z,18.60
2023-05-01T05:25:17.041Z,18.60
2023-05-01T05:27:49.803Z,18.60
2023-05-01T05:30:22.796Z,18.70
2023-05-01T05:32:55.860Z,18.70
2023-05-01T05:35:28.442Z,18.70
2023-05-01T05:38:01.537Z,18.70
2023-05-01T05:40:35.781Z,18.70
2023-05-01T05:43:09.002Z,18.70
2023-05-01T05:45:41.880Z,18.70
2023-05-01T05:48:14.917Z,18.70
2023-05-01T05:50:47.434Z,18.70
2023-05-01T05:53:24.389Z,18.70
2023-05-01T05:55:58.906Z,18.70
2023-05-01T05:58:31.833Z,18.70
2023-05-01T06:01:07.205Z,18.70
2023-05-01T06:03:41.698Z,18.70
2023-05-01T06:06:14.758Z,18.70
2023-05-01T06:08:47.389Z,18.70
2023-05-01T06:11:22.146Z,18.70
2023-05-01T06:13:54.776Z,18.70
2023-05-01T06:16:27.849Z,18.70
2023-05-01T06:19:00.634Z,18.70
2023-05-01T06:21:34.003Z,18.70
2023-05-01T06:24:06.782Z,18.70
2023-05-01T06:26:47.686Z,18.80
2023-05-01T06:29:20.644Z,18.70
2023-05-01T06:31:53.316Z,18.70
2023-05-01T06:34:26.035Z,18.70
2023-05-01T06:36:59.923Z,18.80
2023-05-01T06:39:32.438Z,18.80
2023-05-01T06:42:05.094Z,18.80
2023-05-01T06:44:44.780Z,18.80
2023-05-01T06:47:17.475Z,18.80
2023-05-01T06:49:50.064Z,18.90
2023-05-01T06:52:22.690Z,18.90
2023-05-01T06:54:55.274Z,18.90
2023-05-01T06:57:27.894Z,18.90
2023-05-01T07:00:00.753Z,18.90
2023-05-01T07:02:33.559Z,18.90
2023-05-01T07:05:06.364Z,18.80
2023-05-01T07:07:42.246Z,18.80
2023-05-01T07:10:20.063Z,18.80
2023-05-01T07:12:52.649Z,18.80
2023-05-01T07:15:25.228Z,18.70
2023-05-01T07:17:58.630Z,18.70
2023-05-01T07:20:37.370Z,18.70
2023-05-01T07:23:10.150Z,18.70
2023-05-01T07:25:45.347Z,18.70
2023-05-01T07:28:22.003Z,18.60
2023-05-01T07:30:59.045Z,18.60
2023-05-01T07:33:46.261Z,18.70
2023-05-01T07:36:25.720Z,18.60
2023-05-01T07:39:13.595Z,18.60
2023-05-01T07:41:56.065Z,18.60
2023-05-01T07:44:42.272Z,18.60
2023-05-01T07:47:19.845Z,18.70
2023-05-01T07:50:04.221Z,18.70
2023-05-01T07:52:56.330Z,18.70
2023-05-01T07:55:37.581Z,18.70
2023-05-01T07:58:11.290Z,18.80
2023-05-01T08:00:45.554Z,18.80
2023-05-01T08:03:18.329Z,18.80
2023-05-01T08:05:51.137Z,18.90
2023-05-01T08:08:28.146Z,18.90
2023-05-01T08:11:00.980Z,18.90
2023-05-01T08:13:45.376Z,18.90
2023-05-01T08:16:28.032Z,19.00
2023-05-01T08:19:06.613Z,19.00
2023-05-01T08:21:51.883Z,19.00
2023-05-01T08:24:33.298Z,19.00
2023-05-01T08:27:06.483Z,19.00
2023-05-01T08:29:38.918Z,19.00
2023-05-01T08:32:11.686Z,19.00
2023-05-01T08:34:44.178Z,19.00
2023-05-01T08:37:19.110Z,19.00
2023-05-01T08:39:51.982Z,19.00
2023-05-01T08:42:24.963Z,19.00
2023-05-01T08:44:59.564Z,19.00
2023-05-01T08:47:32.731Z,19.00
2023-05-01T08:50:09.671Z,19.00
2023-05-01T08:52:43.503Z,19.00
2023-05-01T08:55:16.631Z,19.00
2023-05-01T08:57:49.447Z,19.00
2023-05-01T09:00:22.450Z,19.00
2023-05-01T09:02:56.630Z,19.00
2023-05-01T09:05:31.651Z,19.00
2023-05-01T09:08:04.599Z,19.00
2023-05-01T09:10:43.281Z,19.00
2023-05-01T09:13:16.063Z,19.00
2023-05-01T09:15:48.672Z,19.00
2023-05-01T09:18:21.661Z,19.10
2023-05-01T09:20:55.559Z,19.10
2023-05-01T09:23:28.571Z,19.10
2023-05-01T09:26:04.938Z,19.20
2023-05-01T09:28:45.818Z,19.20
2023-05-01T09:31:22.605Z,19.30
2023-05-01T09:33:57.400Z,19.30
2023-05-01T09:36:32.709Z,19.40
2023-05-01T09:39:05.375Z,19.50
2023-05-01T09:41:52.848Z,19.50
2023-05-01T09:44:27.140Z,19.50
2023-05-01T09:46:59.857Z,19.50
2023-05-01T09:49:59.822Z,19.50
2023-05-01T09:52:35.658Z,19.60
2023-05-01T09:55:18.603Z,19.60
2023-05-01T09:57:51.250Z,19.60
2023-05-01T10:00:23.779Z,19.70
2023-05-01T10:02:56.645Z,19.80
2023-05-01T10:05:43.688Z,19.90
2023-05-01T10:08:16.834Z,20.00
2023-05-01T10:11:05.479Z,20.10
2023-05-01T10:13:38.079Z,20.30
2023-05-01T10:16:29.511Z,20.40
2023-05-01T10:19:04.403Z,20.50
2023-05-01T10:21:37.209Z,20.60
2023-05-01T10:24:10.494Z,20.70
2023-05-01T10:26:47.595Z,20.80
2023-05-01T10:29:23.759Z,20.90
2023-05-01T10:31:56.839Z,21.00
2023-05-01T10:34:31.018Z,21.10
2023-05-01T10:37:18.778Z,21.10
2023-05-01T10:39:51.289Z,21.10
2023-05-01T10:42:23.910Z,21.20
2023-05-01T10:45:29.414Z,21.20
2023-05-01T10:48:02.126Z,21.20
2023-05-01T10:50:35.303Z,21.20
2023-05-01T10:53:14.743Z,21.20
2023-05-01T10:55:49.501Z,21.10
2023-05-01T10:58:56.269Z,21.10
2023-05-01T11:01:30.484Z,21.00
2023-05-01T11:04:08.627Z,21.00
2023-05-01T11:07:18.157Z,21.00
2023-05-01T11:09:55.869Z,20.90
2023-05-01T11:12:47.108Z,20.80
2023-05-01T11:15:30.858Z,20.80
2023-05-01T11:18:05.759Z,20.80
2023-05-01T11:20:38.377Z,20.80
2023-05-01T11:23:18.212Z,20.70
2023-05-01T11:25:51.028Z,20.70
2023-05-01T11:28:23.627Z,20.70
2023-05-01T11:30:56.484Z,20.60
2023-05-01T11:33:29.431Z,20.60
2023-05-01T11:36:03.336Z,20.60
2023-05-01T11:38:35.985Z,20.50
2023-05-01T11:41:08.776Z,20.50
2023-05-01T11:43:59.770Z,20.40
2023-05-01T11:46:33.942Z,20.40
2023-05-01T11:49:06.496Z,20.30
2023-05-01T11:51:39.268Z,20.30
2023-05-01T11:54:15.195Z,20.30
2023-05-01T11:56:57.572Z,20.30
2023-05-01T11:59:30.889Z,20.30
2023-05-01T12:02:03.606Z,20.30
2023-05-01T12:04:36.682Z,20.30
2023-05-01T12:07:20.117Z,20.30
2023-05-01T12:09:52.850Z,20.30
2023-05-01T12:12:25.543Z,20.30
2023-05-01T12:14:59.244Z,20.30
2023-05-01T12:17:33.302Z,20.30
2023-05-01T12:20:06.519Z,20.30
2023-05-01T12:22:50.526Z,20.30
2023-05-01T12:25:29.901Z,20.30
2023-05-01T12:28:07.864Z,20.20
2023-05-01T12:30:41.580Z,20.20
2023-05-01T12:33:18.067Z,20.20
2023-05-01T12:35:51.426Z,20.20
2023-05-01T12:38:24.094Z,20.20
2023-05-01T12:40:58.457Z,20.20
2023-05-01T12:43:33.123Z,20.20
2023-05-01T12:46:07.092Z,20.20
2023-05-01T12:48:40.452Z,20.10
2023-05-01T12:51:20.046Z,20.10
2023-05-01T12:53:57.649Z,20.10
2023-05-01T12:56:30.323Z,20.10
2023-05-01T12:59:02.803Z,20.10
2023-05-01T13:01:35.512Z,20.10
2023-05-01T13:04:08.349Z,20.10
2023-05-01T13:06:41.882Z,20.10
2023-05-01T13:09:15.837Z,20.10
2023-05-01T13:12:11.357Z,20.00
2023-05-01T13:14:44.483Z,20.00
2023-05-01T13:17:25.853Z,20.00
2023-05-01T13:20:01.086Z,20.10
2023-05-01T13:22:36.242Z,20.10
2023-05-01T13:25:20.865Z,20.10
2023-05-01T13:27:54.239Z,20.10
2023-05-01T13:30:34.388Z,20.10
2023-05-01T13:33:08.114Z,20.10
2023-05-01T13:35:40.940Z,20.10
2023-05-01T13:38:14.305Z,20.10
2023-05-01T13:40:46.926Z,20.10
2023-05-01T13:43:21.352Z,20.20
2023-05-01T13:45:58.301Z,20.20
2023-05-01T13:48:32.126Z,20.20
2023-05-01T13:51:05.215Z,20.20
2023-05-01T13:53:38.867Z,20.20
2023-05-01T13:56:13.571Z,20.10
2023-05-01T13:58:46.950Z,20.20
2023-05-01T14:01:21.722Z,20.10
2023-05-01T14:03:57.492Z,20.10
2023-05-01T14:06:31.246Z,20.10
2023-05-01T14:09:05.961Z,20.10
2023-05-01T14:11:49.206Z,20.00
2023-05-01T14:14:21.757Z,20.00
2023-05-01T14:16:54.560Z,19.90
2023-05-01T14:19:27.646Z,19.90
2023-05-01T14:22:00.417Z,19.90
2023-05-01T14:24:37.830Z,19.90
2023-05-01T14:27:10.691Z,19.90
2023-05-01T14:29:47.241Z,19.90
2023-05-01T14:32:19.854Z,19.90
2023-05-01T14:34:52.914Z,19.90
2023-05-01T14:37:25.448Z,19.80
2023-05-01T14:39:58.366Z,19.80
2023-05-01T14:42:31.933Z,19.80
2023-05-01T14:45:06.967Z,19.80
2023-05-01T14:47:41.453Z,19.80
2023-05-01T14:50:22.894Z,19.80
2023-05-01T14:53:00.554Z,19.80
2023-05-01T14:55:34.952Z,19.80
2023-05-01T14:58:07.809Z,19.80
2023-05-01T15:00:40.477Z,19.80
2023-05-01T15:03:13.486Z,19.90
2023-05-01T15:05:46.378Z,19.90
2023-05-01T15:08:18.991Z,19.90
2023-05-01T15:10:53.304Z,19.90
2023-05-01T15:13:26.292Z,19.90
2023-05-01T15:15:59.093Z,20.00
2023-05-01T15:18:31.827Z,20.00
2023-05-01T15:21:04.940Z,20.00
2023-05-01T15:23:37.543Z,19.90
2023-05-01T15:26:10.030Z,20.00
2023-05-01T15:28:42.676Z,20.00
2023-05-01T15:31:15.387Z,20.00
2023-05-01T15:33:48.008Z,20.00
2023-05-01T15:36:20.636Z,19.90
2023-05-01T15:38:53.197Z,19.90
2023-05-01T15:41:25.856Z,19.90
2023-05-01T15:43:58.500Z,19.90
2023-05-01T15:46:31.777Z,19.90
2023-05-01T15:49:07.596Z,19.90
2023-05-01T15:51:40.223Z,19.90
2023-05-01T15:54:12.971Z,19.90
2023-05-01T15:56:45.767Z,19.80
2023-05-01T15:59:18.390Z,19.80
2023-05-01T16:01:53.888Z,19.80
2023-05-01T16:04:26.576Z,19.70
2023-05-01T16:06:59.132Z,19.70
2023-05-01T16:09:32.201Z,19.70
2023-05-01T16:12:04.774Z,19.60
2023-05-01T16:14:41.510Z,19.60
2023-05-01T16:17:14.429Z,19.60
2023-05-01T16:19:48.034Z,19.60
2023-05-01T16:22:21.679Z,19.60
2023-05-01T16:24:54.200Z,19.50
2023-05-01T16:27:26.753Z,19.50
2023-05-01T16:29:59.887Z,19.50
2023-05-01T16:32:34.619Z,19.50
2023-05-01T16:35:10.237Z,19.50
2023-05-01T16:37:42.817Z,19.50
2023-05-01T16:40:19.043Z,19.50
2023-05-01T16:42:52.534Z,19.50
2023-05-01T16:45:25.126Z,19.40
2023-05-01T16:47:58.885Z,19.40
2023-05-01T16:50:31.613Z,19.40
2023-05-01T16:53:04.152Z,19.40
2023-05-01T16:55:36.907Z,19.40
2023-05-01T16:58:09.409Z,19.30
2023-05-01T17:00:42.976Z,19.30
2023-05-01T17:03:16.316Z,19.30
2023-05-01T17:05:48.992Z,19.30
2023-05-01T17:08:21.525Z,19.30
2023-05-01T17:10:54.167Z,19.30
2023-05-01T17:13:26.719Z,19.30
2023-05-01T17:15:59.823Z,19.20
2023-05-01T17:18:32.512Z,19.20
2023-05-01T17:21:05.505Z,19.20
2023-05-01T17:23:38.000Z,19.20
2023-05-01T17:26:10.678Z,19.20
2023-05-01T17:28:46.785Z,19.20
2023-05-01T17:31:21.878Z,19.20
2023-05-01T17:33:55.158Z,19.20
2023-05-01T17:36:29.328Z,19.20
2023-05-01T17:39:02.421Z,19.20
2023-05-01T17:41:35.041Z,19.20
2023-05-01T17:44:07.643Z,19.20
2023-05-01T17:46:40.273Z,19.20
2023-05-01T17:49:12.834Z,19.20
2023-05-01T17:51:45.560Z,19.20
2023-05-01T17:54:18.306Z,19.20
2023-05-01T17:56:50.937Z,19.20
2023-05-01T17:59:23.576Z,19.20
2023-05-01T18:01:58.834Z,19.20
2023-05-01T18:04:31.785Z,19.20
2023-05-01T18:07:04.328Z,19.20
2023-05-01T18:09:36.895Z,19.20
2023-05-01T18:12:10.466Z,19.10
2023-05-01T18:14:43.035Z,19.20
2023-05-01T18:17:15.663Z,19.20
2023-05-01T18:19:48.343Z,19.20
2023-05-01T18:22:21.024Z,19.20
2023-05-01T18:24:53.584Z,19.20
2023-05-01T18:27:26.309Z,19.20
2023-05-01T18:29:59.013Z,19.20
2023-05-01T18:32:46.367Z,19.20
2023-05-01T18:35:20.785Z,19.20
2023-05-01T18:37:54.280Z,19.20
2023-05-01T18:40:27.552Z,19.20
2023-05-01T18:42:59.970Z,19.20
2023-05-01T18:45:32.745Z,19.20
2023-05-01T18:48:05.853Z,19.20
2023-05-01T18:50:38.251Z,19.20
2023-05-01T18:53:10.844Z,19.20
2023-05-01T18:55:43.508Z,19.20
2023-05-01T18:58:16.109Z,19.10
2023-05-01T19:00:48.821Z,19.20
2023-05-01T19:03:22.164Z,19.20
2023-05-01T19:05:54.860Z,19.20
2023-05-01T19:08:27.486Z,19.20
2023-05-01T19:11:00.163Z,19.20
2023-05-01T19:13:33.705Z,19.20
2023-05-01T19:16:06.527Z,19.20
2023-05-01T19:18:39.322Z,19.20
2023-05-01T19:21:11.993Z,19.30
2023-05-01T19:23:45.456Z,19.30
2023-05-01T19:26:18.062Z,19.30
2023-05-01T19:28:50.689Z,19.30
2023-05-01T19:31:25.440Z,19.30
2023-05-01T19:33:58.153Z,19.30
2023-05-01T19:36:30.725Z,19.30
2023-05-01T19:39:04.864Z,19.20
2023-05-01T19:41:37.484Z,19.30
2023-05-01T19:44:10.123Z,19.30
2023-05-01T19:46:42.642Z,19.30
2023-05-01T19:49:15.266Z,19.30
2023-05-01T19:51:47.875Z,19.30
2023-05-01T19:54:22.523Z,19.30
2023-05-01T19:56:56.257Z,19.30
2023-05-01T19:59:28.825Z,19.30
2023-05-01T20:02:01.648Z,19.30
2023-05-01T20:04:34.495Z,19.30
2023-05-01T20:07:07.298Z,19.40
2023-05-01T20:09:39.913Z,19.40
2023-05-01T20:12:12.588Z,19.40
2023-05-01T20:14:45.237Z,19.40
2023-05-01T20:17:17.978Z,19.40
2023-05-01T20:19:50.535Z,19.40
2023-05-01T20:22:23.149Z,19.40
2023-05-01T20:24:55.754Z,19.40
2023-05-01T20:27:28.412Z,19.40
2023-05-01T20:30:01.869Z,19.40
2023-05-01T20:32:34.656Z,19.40
2023-05-01T20:35:07.547Z,19.40
2023-05-01T20:37:40.033Z,19.40
2023-05-01T20:40:13.381Z,19.40
2023-05-01T20:42:45.997Z,19.50
2023-05-01T20:45:18.514Z,19.40
2023-05-01T20:47:51.869Z,19.50
2023-05-01T20:50:26.120Z,19.40
2023-05-01T20:52:58.650Z,19.40
2023-05-01T20:55:31.363Z,19.40
2023-05-01T20:58:04.001Z,19.40
2023-05-01T21:00:36.751Z,19.40
2023-05-01T21:03:09.846Z,19.30
2023-05-01T21:05:42.356Z,19.30
2023-05-01T21:08:15.507Z,19.30
2023-05-01T21:10:48.020Z,19.30
2023-05-01T21:13:21.654Z,19.30
2023-05-01T21:15:54.871Z,19.30
2023-05-01T21:18:31.465Z,19.30
2023-05-01T21:21:04.176Z,19.20
2023-05-01T21:23:37.361Z,19.20
2023-05-01T21:26:10.231Z,19.20
2023-05-01T21:28:43.922Z,19.20
2023-05-01T21:31:16.823Z,19.10
2023-05-01T21:33:50.099Z,19.10
2023-05-01T21:36:22.735Z,19.10
2023-05-01T21:38:55.485Z,19.10
2023-05-01T21:41:27.984Z,19.10
2023-05-01T21:44:00.613Z,19.10
2023-05-01T21:46:33.381Z,19.10
2023-05-01T21:49:05.912Z,19.10
2023-05-01T21:51:40.039Z,19.10
2023-05-01T21:54:12.712Z,19.20
2023-05-01T21:56:45.377Z,19.20
2023-05-01T21:59:18.612Z,19.10
2023-05-01T22:01:51.229Z,19.10
2023-05-01T22:04:24.169Z,19.10
2023-05-01T22:06:56.829Z,19.10
2023-05-01T22:09:29.513Z,19.10
2023-05-01T22:12:02.170Z,19.10
2023-05-01T22:14:46.656Z,19.10
2023-05-01T22:17:24.470Z,19.10
2023-05-01T22:19:57.260Z,19.10
2023-05-01T22:22:29.931Z,19.10
2023-05-01T22:25:03.015Z,19.10
2023-05-01T22:27:36.116Z,19.10
2023-05-01T22:30:09.058Z,19.10
2023-05-01T22:32:41.699Z,19.10
2023-05-01T22:35:14.318Z,19.10
2023-05-01T22:37:46.927Z,19.10
2023-05-01T22:40:20.887Z,19.10
2023-05-01T22:42:53.408Z,19.10
2023-05-01T22:45:26.048Z,19.10
2023-05-01T22:47:58.595Z,19.10
2023-05-01T22:50:31.253Z,19.10
2023-05-01T22:53:04.164Z,19.10
2023-05-01T22:55:37.688Z,19.10
2023-05-01T22:58:10.222Z,19.10
2023-05-01T23:00:42.840Z,19.10
2023-05-01T23:03:15.810Z,19.10
2023-05-01T23:05:49.110Z,19.10
2023-05-01T23:08:21.699Z,19.10
2023-05-01T23:10:54.899Z,19.10
2023-05-01T23:13:28.404Z,19.10
2023-05-01T23:16:01.090Z,19.10
2023-05-01T23:18:34.162Z,19.10
2023-05-01T23:21:06.619Z,19.00
2023-05-01T23:23:44.872Z,19.10
2023-05-01T23:26:31.297Z,19.10
2023-05-01T23:29:07.210Z,19.10
2023-05-01T23:31:47.304Z,19.10
2023-05-01T23:34:20.046Z,19.10
2023-05-01T23:36:52.612Z,19.10
2023-05-01T23:39:25.103Z,19.10
2023-05-01T23:41:57.736Z,19.10
2023-05-01T23:44:30.712Z,19.10
2023-05-01T23:47:03.404Z,19.10
2023-05-01T23:49:36.068Z,19.10
2023-05-01T23:52:08.734Z,19.10
2023-05-01T23:54:41.298Z,19.10
2023-05-01T23:57:13.925Z,19.10
2023-05-01T23:59:46.602Z,19.10
